EGMD

Lydd Airport

Lydd, Ashford, United Kingdom
METAR EGMD 211620Z 24008KT 9999 SCT022 04/01 Q1020
Observed Flight Rules
Jan-21 @ 16:20 UTC (28 minutes ago) Visual Flight Rules
Wind Visibility Clouds
240° at 8 knots 10,000+ meters
  • Scattered at 2,200' AGL
Temperatures Readings
Current 4°C / 39°F
Dewpoint 1°C / 34°F
Humidity 81%
Altimeter 30.12" Hg
Pressure 1019.92 hPa
Elevation 3
METAR EGMD 211620Z 24008KT 9999 SCT022 04/01 Q1020
Observed Flight Rules
Jan-21 @ 16:20 UTC
(28 minutes ago)
VFR
Wind Visibility
240° at 8 knots 10,000+ meters
Clouds
  • Scattered at 2,200' AGL
Temperature Dewpoint
4°C / 39°F 1°C / 34°F
Humidity Altimeter Pressure
81% 30.12" Hg 1019.92 hPa